Time;durP1;ratioP1;P1;durP2;ratioP2;P2;SDS_P1;SDS_P2;PMS_P1;PMS_P2;Temp;Humidity;BMP_temperature;BMP_pressure;BME280_temperature;BME280_humidity;BME280_pressure;Samples;Min_cycle;Max_cycle;Signal;HPM_P1;HPM_P2
2022/05/25 00:01:24;;;;;;;0.10;0.10;;;;;;;;;;6266283;22;20393;-49
2022/05/25 00:03:49;;;;;;;9.30;1.55;;;;;;;;;;6268247;22;20011;-52
2022/05/25 00:06:15;;;;;;;0.00;0.00;;;;;;;;;;6269762;22;20004;-50
2022/05/25 00:08:40;;;;;;;0.00;0.00;;;;;;;;;;6270479;22;20111;-53
2022/05/25 00:11:06;;;;;;;0.10;0.10;;;;;;;;;;6268468;22;20014;-54
2022/05/25 00:13:31;;;;;;;0.00;0.00;;;;;;;;;;6269605;22;20012;-51
2022/05/25 00:15:57;;;;;;;0.15;0.15;;;;;;;;;;6269278;22;20015;-53
2022/05/25 00:18:22;;;;;;;0.00;0.00;;;;;;;;;;6270714;22;20007;-54
2022/05/25 00:20:47;;;;;;;1.55;1.08;;;;;;;;;;6268532;22;20011;-53
2022/05/25 00:23:13;;;;;;;0.13;0.13;;;;;;;;;;6270885;22;20036;-55
2022/05/25 00:25:40;;;;;;;0.28;0.28;;;;;;;;;;6269118;22;20297;-55
2022/05/25 00:28:07;;;;;;;0.00;0.00;;;;;;;;;;6271575;22;20069;-55
2022/05/25 00:30:32;;;;;;;0.00;0.00;;;;;;;;;;6267808;22;20358;-52
2022/05/25 00:32:58;;;;;;;0.05;0.05;;;;;;;;;;6271664;22;20702;-50
2022/05/25 00:35:24;;;;;;;0.00;0.00;;;;;;;;;;6269166;22;20038;-55
2022/05/25 00:37:50;;;;;;;0.10;0.10;;;;;;;;;;6270454;22;20099;-53
2022/05/25 00:40:17;;;;;;;0.40;0.40;;;;;;;;;;6269069;22;20089;-52
2022/05/25 00:42:43;;;;;;;0.10;0.10;;;;;;;;;;6269831;22;20469;-52
2022/05/25 00:45:09;;;;;;;0.00;0.00;;;;;;;;;;6270183;22;20011;-55
2022/05/25 00:47:35;;;;;;;0.10;0.10;;;;;;;;;;6269239;22;20019;-53
2022/05/25 00:50:00;;;;;;;0.10;0.10;;;;;;;;;;6267801;22;20008;-54
2022/05/25 00:52:26;;;;;;;0.10;0.10;;;;;;;;;;6270475;22;20706;-51
2022/05/25 00:54:58;;;;;;;0.00;0.00;;;;;;;;;;6267948;22;20389;-51
2022/05/25 00:57:30;;;;;;;0.98;0.90;;;;;;;;;;6270135;22;20015;-51
2022/05/25 01:00:03;;;;;;;0.10;0.10;;;;;;;;;;6268865;22;20014;-54
2022/05/25 01:02:28;;;;;;;1.48;0.85;;;;;;;;;;6242767;22;20028;-53
2022/05/25 01:04:53;;;;;;;0.05;0.05;;;;;;;;;;6268852;22;20011;-50
2022/05/25 01:07:26;;;;;;;0.00;0.00;;;;;;;;;;6269169;22;20035;-54
2022/05/25 01:09:58;;;;;;;0.00;0.00;;;;;;;;;;6269104;22;20015;-51
2022/05/25 01:12:44;;;;;;;0.00;0.00;;;;;;;;;;6268297;22;20018;-53
2022/05/25 01:15:24;;;;;;;0.10;0.10;;;;;;;;;;6270521;22;20035;-54
2022/05/25 01:17:49;;;;;;;1.85;0.63;;;;;;;;;;6268810;22;20543;-50
2022/05/25 01:20:22;;;;;;;0.00;0.00;;;;;;;;;;6268336;22;20444;-55
2022/05/25 01:22:59;;;;;;;0.10;0.10;;;;;;;;;;6269369;22;20042;-51
2022/05/25 01:25:39;;;;;;;0.10;0.10;;;;;;;;;;6240202;22;20530;-55
2022/05/25 01:28:22;;;;;;;0.10;0.10;;;;;;;;;;6243526;22;20361;-54
2022/05/25 01:30:51;;;;;;;0.00;0.00;;;;;;;;;;6268097;22;20034;-52
2022/05/25 01:33:29;;;;;;;0.43;0.43;;;;;;;;;;6269245;22;20004;-53
2022/05/25 01:36:15;;;;;;;0.00;0.00;;;;;;;;;;6268675;22;20008;-52
2022/05/25 01:38:51;;;;;;;0.10;0.10;;;;;;;;;;6240114;22;20096;-52
2022/05/25 01:41:21;;;;;;;0.00;0.00;;;;;;;;;;6269238;22;20004;-56
2022/05/25 01:43:54;;;;;;;0.00;0.00;;;;;;;;;;6268857;22;20000;-53
2022/05/25 01:46:25;;;;;;;0.00;0.00;;;;;;;;;;6269544;22;20023;-54
2022/05/25 01:48:52;;;;;;;0.05;0.05;;;;;;;;;;6240575;22;20020;-52
2022/05/25 01:51:19;;;;;;;0.30;0.30;;;;;;;;;;6269150;22;20020;-52
2022/05/25 01:53:48;;;;;;;0.00;0.00;;;;;;;;;;6267930;22;20042;-51
2022/05/25 01:56:15;;;;;;;0.10;0.10;;;;;;;;;;6267349;22;20012;-54
2022/05/25 01:58:43;;;;;;;0.10;0.10;;;;;;;;;;6269931;22;20003;-50
2022/05/25 02:01:09;;;;;;;0.05;0.05;;;;;;;;;;6268632;22;20482;-52
2022/05/25 02:06:24;;;;;;;0.10;0.10;;;;;;;;;;6268691;22;20018;-53
2022/05/25 02:08:58;;;;;;;3.03;0.68;;;;;;;;;;6267213;22;20019;-53
2022/05/25 02:11:32;;;;;;;0.10;0.10;;;;;;;;;;6267662;22;20079;-50
2022/05/25 02:14:07;;;;;;;0.00;0.00;;;;;;;;;;6268600;22;20003;-53
2022/05/25 02:16:40;;;;;;;0.10;0.10;;;;;;;;;;6268767;22;20019;-54
2022/05/25 02:19:08;;;;;;;0.10;0.10;;;;;;;;;;6268018;22;20022;-53
2022/05/25 02:21:37;;;;;;;0.00;0.00;;;;;;;;;;6268303;22;20022;-54
2022/05/25 02:24:16;;;;;;;4.32;0.55;;;;;;;;;;6267444;22;20012;-55
2022/05/25 02:26:45;;;;;;;0.25;0.25;;;;;;;;;;6268062;22;20023;-53
2022/05/25 02:29:18;;;;;;;0.08;0.08;;;;;;;;;;6268841;22;20042;-52
2022/05/25 02:31:45;;;;;;;1.58;1.48;;;;;;;;;;6268291;22;20023;-53
2022/05/25 02:34:12;;;;;;;0.08;0.08;;;;;;;;;;6269595;22;20103;-53
2022/05/25 02:36:38;;;;;;;0.00;0.00;;;;;;;;;;6269224;22;20314;-52
2022/05/25 02:39:05;;;;;;;0.10;0.10;;;;;;;;;;6269803;22;20008;-54
2022/05/25 02:41:34;;;;;;;5.10;1.85;;;;;;;;;;6268434;22;20018;-55
2022/05/25 02:44:00;;;;;;;0.20;0.10;;;;;;;;;;6270229;22;20063;-53
2022/05/25 02:46:25;;;;;;;0.03;0.03;;;;;;;;;;6267988;22;20233;-53
2022/05/25 02:48:51;;;;;;;0.00;0.00;;;;;;;;;;6269274;22;20034;-53
2022/05/25 02:51:17;;;;;;;0.05;0.05;;;;;;;;;;6266962;22;20098;-55
2022/05/25 02:53:42;;;;;;;0.10;0.10;;;;;;;;;;6268820;22;20023;-54
2022/05/25 02:56:08;;;;;;;0.00;0.00;;;;;;;;;;6267201;22;20004;-53
2022/05/25 03:22:04;;;;;;;0.08;0.08;;;;;;;;;;6151910;22;1571765;-52
2022/05/25 03:24:29;;;;;;;0.10;0.10;;;;;;;;;;6126904;23;20267;-51
2022/05/25 03:26:55;;;;;;;0.00;0.00;;;;;;;;;;6126027;23;20033;-53
2022/05/25 03:29:20;;;;;;;0.08;0.08;;;;;;;;;;6127104;23;20038;-50
2022/05/25 03:31:46;;;;;;;0.10;0.10;;;;;;;;;;6126726;23;20018;-54
2022/05/25 03:34:11;;;;;;;0.10;0.10;;;;;;;;;;6127270;23;20006;-52
2022/05/25 03:36:37;;;;;;;0.00;0.00;;;;;;;;;;6118522;23;20083;-53
2022/05/25 03:39:02;;;;;;;0.17;0.17;;;;;;;;;;6127223;23;20030;-55
2022/05/25 03:41:27;;;;;;;0.00;0.00;;;;;;;;;;6126966;23;20095;-52
2022/05/25 03:43:52;;;;;;;0.10;0.10;;;;;;;;;;6125210;23;20025;-50
2022/05/25 03:46:18;;;;;;;0.10;0.10;;;;;;;;;;6128518;23;20722;-51
2022/05/25 03:48:43;;;;;;;0.03;0.03;;;;;;;;;;6123803;23;20018;-53
2022/05/25 03:51:09;;;;;;;0.00;0.00;;;;;;;;;;6097549;23;20011;-54
2022/05/25 03:53:34;;;;;;;0.08;0.08;;;;;;;;;;6092471;23;20041;-54
2022/05/25 03:56:00;;;;;;;0.03;0.03;;;;;;;;;;6098250;23;20025;-49
2022/05/25 03:58:25;;;;;;;0.10;0.10;;;;;;;;;;6096737;23;20026;-52
2022/05/25 04:00:50;;;;;;;0.10;0.10;;;;;;;;;;6093516;23;20442;-54
2022/05/25 04:03:16;;;;;;;0.10;0.10;;;;;;;;;;6095658;23;20013;-53
2022/05/25 04:05:42;;;;;;;0.10;0.10;;;;;;;;;;6097090;23;20018;-53
2022/05/25 04:08:07;;;;;;;0.05;0.05;;;;;;;;;;6092235;23;20014;-51
2022/05/25 04:10:33;;;;;;;24.27;0.80;;;;;;;;;;6086487;23;20046;-55
2022/05/25 04:12:58;;;;;;;0.00;0.00;;;;;;;;;;6091779;23;20014;-54
2022/05/25 04:15:25;;;;;;;0.10;0.10;;;;;;;;;;6090178;23;20011;-51
2022/05/25 04:17:50;;;;;;;0.05;0.05;;;;;;;;;;6090035;23;20468;-54
2022/05/25 04:20:16;;;;;;;0.10;0.10;;;;;;;;;;6090375;23;20010;-51
2022/05/25 04:22:42;;;;;;;9.35;0.68;;;;;;;;;;6115506;23;20111;-52
2022/05/25 04:25:10;;;;;;;0.10;0.10;;;;;;;;;;6119640;23;20006;-53
2022/05/25 04:27:35;;;;;;;0.13;0.13;;;;;;;;;;6117611;23;20437;-53
2022/05/25 04:30:00;;;;;;;0.10;0.10;;;;;;;;;;6119877;23;20018;-55
2022/05/25 04:32:26;;;;;;;0.32;0.32;;;;;;;;;;6117577;23;20029;-49
2022/05/25 04:34:51;;;;;;;0.03;0.03;;;;;;;;;;6118782;23;20367;-54
2022/05/25 04:40:00;;;;;;;0.10;0.10;;;;;;;;;;6119605;23;20020;-52
2022/05/25 04:42:29;;;;;;;1.00;0.90;;;;;;;;;;6119467;23;20014;-52
2022/05/25 04:44:59;;;;;;;0.00;0.00;;;;;;;;;;6118049;23;20094;-53
2022/05/25 04:47:25;;;;;;;0.00;0.00;;;;;;;;;;6093908;23;20034;-52
2022/05/25 04:49:50;;;;;;;0.10;0.10;;;;;;;;;;6117583;23;20500;-50
2022/05/25 04:52:15;;;;;;;0.10;0.10;;;;;;;;;;6119242;23;20066;-50
2022/05/25 04:54:41;;;;;;;0.10;0.10;;;;;;;;;;6117037;23;20037;-51
2022/05/25 04:57:22;;;;;;;0.00;0.00;;;;;;;;;;6120292;23;20018;-54
2022/05/25 04:59:51;;;;;;;0.10;0.10;;;;;;;;;;6146575;23;20037;-54
2022/05/25 05:02:17;;;;;;;0.08;0.08;;;;;;;;;;6148569;23;20021;-50
2022/05/25 05:04:42;;;;;;;0.00;0.00;;;;;;;;;;6147762;23;20041;-53
2022/05/25 05:07:08;;;;;;;0.10;0.10;;;;;;;;;;6150223;23;20014;-54
2022/05/25 05:09:37;;;;;;;0.10;0.10;;;;;;;;;;6144890;23;20010;-53
2022/05/25 05:12:02;;;;;;;0.10;0.10;;;;;;;;;;6149429;23;20009;-55
2022/05/25 05:14:28;;;;;;;2.53;0.40;;;;;;;;;;6146870;23;20029;-50
2022/05/25 05:16:59;;;;;;;4.75;2.15;;;;;;;;;;6148308;23;20021;-51
2022/05/25 05:19:25;;;;;;;0.00;0.00;;;;;;;;;;6147635;23;20020;-52
2022/05/25 05:21:51;;;;;;;0.05;0.05;;;;;;;;;;6146702;23;20362;-54
2022/05/25 05:24:16;;;;;;;0.10;0.10;;;;;;;;;;6148992;23;20008;-54
2022/05/25 05:26:41;;;;;;;0.10;0.10;;;;;;;;;;6147090;23;20033;-53
2022/05/25 05:29:07;;;;;;;0.10;0.10;;;;;;;;;;6148446;23;20140;-53
2022/05/25 05:31:33;;;;;;;0.10;0.10;;;;;;;;;;6146375;23;20045;-53
2022/05/25 05:33:58;;;;;;;0.10;0.10;;;;;;;;;;6149940;23;20013;-54
2022/05/25 05:36:29;;;;;;;0.00;0.00;;;;;;;;;;6145057;23;20024;-52
2022/05/25 05:38:58;;;;;;;0.00;0.00;;;;;;;;;;6149242;23;20009;-53
2022/05/25 05:41:25;;;;;;;0.17;0.17;;;;;;;;;;6147196;23;20029;-52
2022/05/25 05:43:52;;;;;;;0.00;0.00;;;;;;;;;;6145148;23;20762;-53
2022/05/25 05:46:17;;;;;;;0.10;0.10;;;;;;;;;;6144899;23;20021;-52
2022/05/25 05:48:43;;;;;;;0.10;0.10;;;;;;;;;;6145351;23;20014;-48
2022/05/25 05:51:09;;;;;;;0.00;0.00;;;;;;;;;;6144346;23;20018;-53
2022/05/25 05:53:34;;;;;;;0.00;0.00;;;;;;;;;;6144446;23;20396;-52
2022/05/25 05:55:59;;;;;;;0.10;0.10;;;;;;;;;;6144146;23;20020;-52
2022/05/25 05:58:25;;;;;;;0.00;0.00;;;;;;;;;;6143254;23;20510;-49
2022/05/25 06:00:50;;;;;;;0.10;0.10;;;;;;;;;;6143709;23;20006;-49
2022/05/25 06:03:15;;;;;;;0.10;0.10;;;;;;;;;;6142213;23;20372;-50
2022/05/25 06:05:41;;;;;;;0.00;0.00;;;;;;;;;;6144179;23;20337;-51
2022/05/25 06:08:16;;;;;;;0.00;0.00;;;;;;;;;;6142961;23;20009;-51
2022/05/25 06:10:42;;;;;;;0.00;0.00;;;;;;;;;;6139365;23;20250;-50
2022/05/25 06:13:07;;;;;;;0.00;0.00;;;;;;;;;;6145964;23;20237;-52
2022/05/25 06:21:04;;;;;;;0.05;0.05;;;;;;;;;;6143127;23;20024;-53
2022/05/25 06:23:30;;;;;;;0.10;0.10;;;;;;;;;;6144820;23;20013;-52
2022/05/25 06:25:56;;;;;;;0.05;0.05;;;;;;;;;;6140408;23;20025;-53
2022/05/25 06:28:21;;;;;;;0.00;0.00;;;;;;;;;;6142963;23;20236;-49
2022/05/25 06:30:47;;;;;;;0.20;0.20;;;;;;;;;;6141051;23;20009;-52
2022/05/25 06:33:12;;;;;;;0.03;0.03;;;;;;;;;;6142942;23;20507;-50
2022/05/25 06:35:37;;;;;;;0.10;0.10;;;;;;;;;;6141276;23;20356;-52
2022/05/25 06:38:03;;;;;;;0.00;0.00;;;;;;;;;;6145543;23;20025;-47
2022/05/25 06:40:28;;;;;;;0.10;0.10;;;;;;;;;;6141915;23;20018;-53
2022/05/25 06:42:54;;;;;;;0.10;0.10;;;;;;;;;;6144238;23;20010;-49
2022/05/25 06:45:19;;;;;;;0.10;0.10;;;;;;;;;;6142973;23;20031;-52
2022/05/25 06:47:44;;;;;;;0.32;0.32;;;;;;;;;;6143487;23;20179;-50
2022/05/25 06:50:10;;;;;;;0.00;0.00;;;;;;;;;;6145440;23;20278;-51
2022/05/25 06:52:36;;;;;;;0.20;0.20;;;;;;;;;;6142545;23;20009;-51
2022/05/25 06:55:02;;;;;;;0.10;0.10;;;;;;;;;;6144817;23;20027;-48
2022/05/25 06:57:27;;;;;;;0.00;0.00;;;;;;;;;;6143623;23;20065;-51
2022/05/25 06:59:53;;;;;;;0.00;0.00;;;;;;;;;;6138457;23;20053;-49
2022/05/25 07:02:18;;;;;;;0.00;0.00;;;;;;;;;;6144151;23;20033;-48
2022/05/25 07:04:43;;;;;;;0.00;0.00;;;;;;;;;;6143973;23;20010;-50
2022/05/25 07:07:08;;;;;;;0.10;0.10;;;;;;;;;;6144854;23;20442;-49
2022/05/25 07:09:36;;;;;;;0.10;0.10;;;;;;;;;;6142145;23;20010;-51
2022/05/25 07:12:01;;;;;;;0.00;0.00;;;;;;;;;;6144298;23;20068;-50
2022/05/25 07:14:27;;;;;;;0.10;0.10;;;;;;;;;;6143895;23;20238;-51
2022/05/25 07:16:52;;;;;;;0.00;0.00;;;;;;;;;;6142504;23;20073;-54
2022/05/25 07:19:17;;;;;;;0.10;0.10;;;;;;;;;;6147488;23;20080;-50
2022/05/25 07:21:43;;;;;;;0.00;0.00;;;;;;;;;;6144764;23;20028;-52
2022/05/25 07:24:08;;;;;;;0.10;0.10;;;;;;;;;;6148244;23;20016;-53
2022/05/25 07:26:33;;;;;;;0.05;0.05;;;;;;;;;;6146392;23;20006;-52
2022/05/25 07:28:59;;;;;;;0.00;0.00;;;;;;;;;;6147295;23;20037;-51
2022/05/25 07:31:26;;;;;;;1.27;0.15;;;;;;;;;;6145988;23;20013;-53
2022/05/25 07:34:01;;;;;;;0.10;0.10;;;;;;;;;;6143883;23;20033;-49
2022/05/25 07:36:27;;;;;;;0.00;0.00;;;;;;;;;;6141898;23;20017;-52
2022/05/25 07:38:54;;;;;;;0.05;0.05;;;;;;;;;;6145470;23;20632;-49
2022/05/25 07:41:20;;;;;;;0.10;0.10;;;;;;;;;;6147196;23;20010;-51
2022/05/25 07:43:47;;;;;;;0.00;0.00;;;;;;;;;;6144850;23;20005;-53
2022/05/25 07:46:12;;;;;;;0.05;0.05;;;;;;;;;;6148866;23;20016;-52
2022/05/25 07:48:37;;;;;;;0.00;0.00;;;;;;;;;;6149496;23;20017;-50
2022/05/25 07:51:03;;;;;;;0.00;0.00;;;;;;;;;;6148592;23;20088;-51
2022/05/25 07:56:14;;;;;;;0.10;0.10;;;;;;;;;;6147663;23;20083;-54
2022/05/25 07:58:39;;;;;;;0.10;0.10;;;;;;;;;;6149167;23;20025;-53
2022/05/25 08:01:12;;;;;;;0.10;0.10;;;;;;;;;;6145149;23;20400;-52
2022/05/25 08:06:32;;;;;;;7.53;6.60;;;;;;;;;;6089913;23;20448;-51
2022/05/25 08:08:57;;;;;;;0.10;0.10;;;;;;;;;;6142618;23;20503;-57
2022/05/25 08:11:22;;;;;;;0.00;0.00;;;;;;;;;;6137720;23;20006;-55
2022/05/25 08:13:49;;;;;;;0.00;0.00;;;;;;;;;;6143730;23;20466;-49
2022/05/25 08:16:15;;;;;;;0.00;0.00;;;;;;;;;;6136117;23;20013;-54
2022/05/25 08:18:40;;;;;;;0.00;0.00;;;;;;;;;;6141688;23;20732;-54
2022/05/25 08:21:06;;;;;;;0.10;0.10;;;;;;;;;;6141968;23;20106;-51
2022/05/25 08:23:31;;;;;;;0.00;0.00;;;;;;;;;;6144505;23;20033;-55
2022/05/25 08:25:56;;;;;;;0.00;0.00;;;;;;;;;;6140997;23;20013;-52
2022/05/25 08:28:22;;;;;;;0.00;0.00;;;;;;;;;;6132278;23;20017;-56
2022/05/25 08:30:48;;;;;;;0.10;0.10;;;;;;;;;;6142885;23;20054;-54
2022/05/25 08:33:16;;;;;;;0.00;0.00;;;;;;;;;;6146731;23;20021;-56
2022/05/25 08:35:41;;;;;;;0.00;0.00;;;;;;;;;;6146457;23;20005;-53
2022/05/25 08:38:06;;;;;;;0.10;0.10;;;;;;;;;;6148797;23;20013;-53
2022/05/25 08:40:32;;;;;;;0.00;0.00;;;;;;;;;;6147365;23;20720;-51
2022/05/25 08:43:04;;;;;;;0.30;0.30;;;;;;;;;;6150776;23;20014;-54
2022/05/25 08:45:35;;;;;;;0.10;0.10;;;;;;;;;;6149202;23;20029;-52
2022/05/25 08:48:01;;;;;;;0.05;0.05;;;;;;;;;;6149130;23;20006;-52
2022/05/25 08:50:26;;;;;;;0.05;0.05;;;;;;;;;;6148236;23;20066;-53
2022/05/25 08:52:55;;;;;;;0.05;0.05;;;;;;;;;;6147700;23;20014;-54
2022/05/25 08:55:32;;;;;;;0.00;0.00;;;;;;;;;;6148935;23;20020;-56
2022/05/25 08:57:59;;;;;;;0.10;0.10;;;;;;;;;;6148807;23;20021;-54
2022/05/25 09:00:24;;;;;;;0.00;0.00;;;;;;;;;;6148834;23;20075;-55
2022/05/25 09:03:15;;;;;;;0.08;0.08;;;;;;;;;;6146058;23;20442;-52
2022/05/25 09:05:43;;;;;;;0.00;0.00;;;;;;;;;;6145630;23;20041;-53
2022/05/25 09:08:09;;;;;;;0.00;0.00;;;;;;;;;;6148435;23;20045;-52
2022/05/25 09:10:37;;;;;;;0.00;0.00;;;;;;;;;;6146984;23;20014;-52
2022/05/25 09:13:13;;;;;;;0.00;0.00;;;;;;;;;;6147787;23;20029;-52
2022/05/25 09:18:29;;;;;;;0.03;0.03;;;;;;;;;;6148706;23;20028;-55
2022/05/25 09:20:54;;;;;;;0.00;0.00;;;;;;;;;;6146074;23;20014;-50
2022/05/25 09:23:19;;;;;;;0.10;0.10;;;;;;;;;;6148435;23;20016;-54
2022/05/25 09:25:46;;;;;;;0.52;0.52;;;;;;;;;;6145659;23;20024;-52
2022/05/25 09:28:16;;;;;;;0.00;0.00;;;;;;;;;;6149361;23;20009;-56
2022/05/25 09:30:43;;;;;;;0.10;0.10;;;;;;;;;;6145394;23;20009;-53
2022/05/25 09:33:17;;;;;;;0.00;0.00;;;;;;;;;;6149667;23;20013;-54
2022/05/25 09:35:47;;;;;;;0.00;0.00;;;;;;;;;;6146334;23;20006;-54
2022/05/25 09:38:15;;;;;;;0.00;0.00;;;;;;;;;;6148624;23;20025;-54
2022/05/25 09:40:43;;;;;;;0.00;0.00;;;;;;;;;;6148624;23;20076;-52
2022/05/25 09:43:11;;;;;;;0.00;0.00;;;;;;;;;;6145915;23;20092;-50
2022/05/25 09:45:48;;;;;;;0.10;0.10;;;;;;;;;;6139508;23;20613;-51
2022/05/25 09:48:15;;;;;;;0.00;0.00;;;;;;;;;;6141005;23;20016;-55
2022/05/25 09:50:44;;;;;;;0.00;0.00;;;;;;;;;;6146754;23;20009;-53
2022/05/25 09:53:11;;;;;;;0.00;0.00;;;;;;;;;;6146938;23;20002;-55
2022/05/25 09:55:43;;;;;;;0.00;0.00;;;;;;;;;;6141303;23;20013;-54
2022/05/25 09:58:11;;;;;;;0.10;0.10;;;;;;;;;;6132620;23;20025;-55
2022/05/25 10:00:36;;;;;;;0.00;0.00;;;;;;;;;;6148109;23;20021;-55
2022/05/25 10:03:04;;;;;;;0.00;0.00;;;;;;;;;;6145684;23;20010;-53
2022/05/25 10:05:43;;;;;;;0.00;0.00;;;;;;;;;;6146577;23;20088;-54
2022/05/25 10:08:15;;;;;;;0.10;0.10;;;;;;;;;;6148100;23;20013;-53
2022/05/25 10:11:03;;;;;;;0.05;0.05;;;;;;;;;;6146313;23;20296;-55
2022/05/25 10:13:29;;;;;;;0.10;0.10;;;;;;;;;;6146755;23;20108;-56
2022/05/25 10:15:55;;;;;;;0.85;0.85;;;;;;;;;;6148146;23;20347;-54
2022/05/25 10:18:35;;;;;;;0.00;0.00;;;;;;;;;;6146748;23;20135;-54
2022/05/25 10:21:00;;;;;;;;;;;;;;;;;;6149285;23;20143;-56
2022/05/25 10:23:25;;;;;;;0.00;0.00;;;;;;;;;;6122127;23;19909;-54
2022/05/25 10:26:11;;;;;;;0.00;0.00;;;;;;;;;;6147640;23;20009;-53
2022/05/25 10:28:44;;;;;;;0.00;0.00;;;;;;;;;;6137787;23;20006;-55
2022/05/25 10:36:49;;;;;;;0.22;0.22;;;;;;;;;;6146869;23;22320;-55
2022/05/25 10:39:14;;;;;;;0.00;0.00;;;;;;;;;;6146311;23;20056;-54
2022/05/25 10:41:41;;;;;;;0.17;0.17;;;;;;;;;;6148585;23;20682;-52
2022/05/25 10:44:15;;;;;;;0.00;0.00;;;;;;;;;;6147357;23;20017;-57
2022/05/25 10:46:45;;;;;;;0.10;0.10;;;;;;;;;;6147125;23;20058;-54
2022/05/25 10:49:19;;;;;;;0.10;0.10;;;;;;;;;;6147556;23;20057;-56
2022/05/25 10:51:54;;;;;;;0.00;0.00;;;;;;;;;;6143374;23;20017;-53
2022/05/25 10:54:45;;;;;;;0.00;0.00;;;;;;;;;;6146066;23;20033;-55
2022/05/25 10:57:22;;;;;;;0.52;0.45;;;;;;;;;;6147719;23;20022;-55
2022/05/25 11:00:03;;;;;;;0.03;0.03;;;;;;;;;;6145708;23;20021;-54
2022/05/25 11:02:28;;;;;;;0.00;0.00;;;;;;;;;;6145159;23;20018;-56
2022/05/25 11:05:03;;;;;;;0.00;0.00;;;;;;;;;;6145640;23;20016;-55
2022/05/25 11:07:32;;;;;;;0.05;0.05;;;;;;;;;;6145055;23;20014;-53
2022/05/25 11:10:16;;;;;;;0.08;0.08;;;;;;;;;;6147861;23;20016;-52
2022/05/25 11:12:44;;;;;;;0.00;0.00;;;;;;;;;;6142269;23;20005;-54
2022/05/25 11:15:13;;;;;;;0.00;0.00;;;;;;;;;;6148817;23;20010;-53
2022/05/25 11:17:41;;;;;;;0.00;0.00;;;;;;;;;;6143202;23;20457;-55
2022/05/25 11:20:10;;;;;;;0.00;0.00;;;;;;;;;;6150506;23;20383;-52
2022/05/25 11:22:56;;;;;;;0.00;0.00;;;;;;;;;;6146588;23;20018;-55
2022/05/25 11:25:21;;;;;;;0.00;0.00;;;;;;;;;;6148523;23;20021;-56
2022/05/25 11:27:47;;;;;;;0.00;0.00;;;;;;;;;;6149339;23;20014;-55
2022/05/25 11:30:39;;;;;;;0.08;0.08;;;;;;;;;;6149441;23;20013;-52
2022/05/25 11:33:13;;;;;;;10.07;3.50;;;;;;;;;;6116821;23;20022;-56
2022/05/25 11:35:42;;;;;;;0.00;0.00;;;;;;;;;;6147524;23;20097;-55
2022/05/25 11:38:23;;;;;;;0.00;0.00;;;;;;;;;;6149377;23;20028;-54
2022/05/25 11:41:00;;;;;;;0.00;0.00;;;;;;;;;;6149328;23;20005;-54
2022/05/25 11:43:36;;;;;;;0.00;0.00;;;;;;;;;;6147941;23;20009;-56
2022/05/25 11:46:20;;;;;;;0.00;0.00;;;;;;;;;;6151473;23;20041;-56
2022/05/25 11:49:04;;;;;;;0.10;0.10;;;;;;;;;;6149337;23;20006;-56
2022/05/25 11:51:40;;;;;;;0.38;0.38;;;;;;;;;;6147313;23;20009;-55
2022/05/25 11:54:26;;;;;;;0.20;0.20;;;;;;;;;;6149957;23;20036;-53
2022/05/25 11:57:04;;;;;;;0.00;0.00;;;;;;;;;;6148879;23;20039;-53
2022/05/25 11:59:43;;;;;;;0.00;0.00;;;;;;;;;;6147463;23;20010;-53
2022/05/25 12:02:28;;;;;;;0.00;0.00;;;;;;;;;;6148580;23;20005;-56
2022/05/25 12:05:09;;;;;;;1.27;1.17;;;;;;;;;;6148006;23;20013;-57
2022/05/25 12:07:37;;;;;;;0.00;0.00;;;;;;;;;;6144949;23;20208;-51
2022/05/25 12:10:17;;;;;;;0.00;0.00;;;;;;;;;;6144046;23;20017;-54
2022/05/25 12:12:54;;;;;;;0.10;0.10;;;;;;;;;;6144559;23;20020;-56
2022/05/25 12:15:24;;;;;;;0.00;0.00;;;;;;;;;;6143738;23;20036;-54
2022/05/25 12:17:49;;;;;;;;;;;;;;;;;;6145243;23;20577;-55
2022/05/25 12:20:26;;;;;;;0.10;0.10;;;;;;;;;;6143580;23;20288;-54
2022/05/25 12:22:53;;;;;;;0.00;0.00;;;;;;;;;;6143268;23;20021;-53
2022/05/25 12:25:20;;;;;;;0.10;0.10;;;;;;;;;;6145568;23;20014;-56
2022/05/25 12:27:47;;;;;;;0.00;0.00;;;;;;;;;;6143423;23;20513;-54
2022/05/25 12:30:15;;;;;;;0.00;0.00;;;;;;;;;;6144982;23;20045;-55
2022/05/25 12:32:41;;;;;;;0.00;0.00;;;;;;;;;;6142327;23;20013;-55
2022/05/25 12:35:07;;;;;;;0.00;0.00;;;;;;;;;;6146848;23;20013;-56
2022/05/25 12:37:41;;;;;;;0.90;0.40;;;;;;;;;;6142554;23;20074;-56
2022/05/25 12:40:09;;;;;;;0.00;0.00;;;;;;;;;;6145442;23;20044;-56
2022/05/25 12:42:38;;;;;;;0.00;0.00;;;;;;;;;;6141270;23;20029;-54
2022/05/25 12:50:53;;;;;;;0.00;0.00;;;;;;;;;;6144946;23;20310;-53
2022/05/25 12:53:25;;;;;;;0.00;0.00;;;;;;;;;;6145378;23;20025;-55
2022/05/25 12:55:54;;;;;;;0.00;0.00;;;;;;;;;;6145881;23;20543;-56
2022/05/25 12:58:32;;;;;;;0.00;0.00;;;;;;;;;;6148374;23;20100;-54
2022/05/25 13:01:02;;;;;;;0.10;0.10;;;;;;;;;;6146647;23;20056;-57
2022/05/25 13:03:38;;;;;;;0.20;0.20;;;;;;;;;;6148167;23;20036;-57
2022/05/25 13:06:05;;;;;;;0.00;0.00;;;;;;;;;;6147464;23;20036;-56
2022/05/25 13:09:02;;;;;;;0.00;0.00;;;;;;;;;;6148452;23;20017;-55
2022/05/25 13:11:40;;;;;;;0.10;0.10;;;;;;;;;;6097590;23;20010;-57
2022/05/25 13:14:25;;;;;;;0.00;0.00;;;;;;;;;;6147655;23;20018;-54
2022/05/25 13:16:51;;;;;;;0.00;0.00;;;;;;;;;;6147654;23;20032;-57
2022/05/25 13:19:35;;;;;;;0.00;0.00;;;;;;;;;;6138865;23;20005;-57
2022/05/25 13:22:04;;;;;;;0.00;0.00;;;;;;;;;;6141267;23;20021;-56
2022/05/25 13:24:48;;;;;;;0.00;0.00;;;;;;;;;;6140894;23;20372;-56
2022/05/25 13:27:16;;;;;;;0.45;0.45;;;;;;;;;;6140033;23;20222;-56
2022/05/25 13:30:03;;;;;;;0.00;0.00;;;;;;;;;;6139329;23;20391;-58
2022/05/25 13:32:47;;;;;;;0.00;0.00;;;;;;;;;;6139855;23;20013;-55
2022/05/25 13:35:19;;;;;;;0.00;0.00;;;;;;;;;;6140648;23;20356;-55
2022/05/25 13:37:45;;;;;;;0.40;0.40;;;;;;;;;;6145028;23;20021;-57
2022/05/25 13:40:11;;;;;;;0.00;0.00;;;;;;;;;;6149051;23;20007;-57
2022/05/25 13:42:39;;;;;;;0.00;0.00;;;;;;;;;;6143998;23;20595;-55
2022/05/25 13:45:07;;;;;;;0.00;0.00;;;;;;;;;;6148381;23;20024;-55
2022/05/25 13:47:32;;;;;;;2.17;1.10;;;;;;;;;;6146716;23;20061;-58
2022/05/25 13:49:58;;;;;;;0.00;0.00;;;;;;;;;;6148171;23;20009;-55
2022/05/25 13:52:25;;;;;;;0.57;0.57;;;;;;;;;;6147401;23;20037;-58
2022/05/25 13:54:52;;;;;;;0.00;0.00;;;;;;;;;;6146866;23;20032;-57
2022/05/25 13:57:23;;;;;;;3.28;0.38;;;;;;;;;;6147934;23;20053;-55
2022/05/25 13:59:49;;;;;;;0.30;0.30;;;;;;;;;;6146118;23;20020;-57
2022/05/25 14:02:14;;;;;;;0.00;0.00;;;;;;;;;;6147343;23;20009;-58
2022/05/25 14:04:40;;;;;;;0.00;0.00;;;;;;;;;;6145563;23;20025;-57
2022/05/25 14:07:05;;;;;;;0.00;0.00;;;;;;;;;;6148883;23;20036;-56
2022/05/25 14:12:20;;;;;;;0.20;0.20;;;;;;;;;;6144540;23;20056;-57
2022/05/25 14:14:47;;;;;;;0.00;0.00;;;;;;;;;;6148346;23;20016;-57
2022/05/25 14:17:21;;;;;;;0.22;0.22;;;;;;;;;;6144328;23;20013;-56
2022/05/25 14:19:48;;;;;;;0.00;0.00;;;;;;;;;;6146999;23;20018;-57
2022/05/25 14:22:14;;;;;;;0.00;0.00;;;;;;;;;;6145303;23;20053;-55
2022/05/25 14:24:41;;;;;;;0.00;0.00;;;;;;;;;;6148202;23;20017;-57
2022/05/25 14:27:13;;;;;;;0.00;0.00;;;;;;;;;;6147707;23;20416;-57
2022/05/25 14:29:39;;;;;;;0.00;0.00;;;;;;;;;;6146908;23;20067;-58
2022/05/25 14:32:15;;;;;;;0.00;0.00;;;;;;;;;;6146530;23;20037;-57
2022/05/25 14:34:42;;;;;;;0.10;0.10;;;;;;;;;;6147051;23;20025;-55
2022/05/25 14:37:08;;;;;;;0.00;0.00;;;;;;;;;;6146250;23;20029;-56
2022/05/25 14:39:35;;;;;;;0.10;0.10;;;;;;;;;;6146945;23;20029;-56
2022/05/25 14:42:03;;;;;;;0.00;0.00;;;;;;;;;;6147241;23;20032;-55
2022/05/25 14:44:33;;;;;;;0.03;0.03;;;;;;;;;;6148178;23;20039;-58
2022/05/25 14:46:59;;;;;;;0.00;0.00;;;;;;;;;;6143523;23;20020;-57
2022/05/25 14:49:24;;;;;;;0.00;0.00;;;;;;;;;;6143971;23;20013;-56
2022/05/25 14:51:50;;;;;;;0.00;0.00;;;;;;;;;;6146330;23;20299;-57
2022/05/25 14:54:23;;;;;;;0.00;0.00;;;;;;;;;;6145452;23;20006;-56
2022/05/25 14:56:50;;;;;;;0.00;0.00;;;;;;;;;;6137108;23;20029;-55
2022/05/25 14:59:29;;;;;;;0.05;0.05;;;;;;;;;;6147148;23;20021;-55
2022/05/25 15:01:55;;;;;;;0.00;0.00;;;;;;;;;;6146762;23;20020;-58
2022/05/25 15:04:29;;;;;;;0.00;0.00;;;;;;;;;;6140678;23;20040;-56
2022/05/25 15:06:56;;;;;;;0.00;0.00;;;;;;;;;;6147179;23;20025;-54
2022/05/25 15:09:23;;;;;;;0.05;0.05;;;;;;;;;;6142758;23;20014;-57
2022/05/25 15:11:59;;;;;;;0.00;0.00;;;;;;;;;;6147477;23;20029;-56
2022/05/25 15:20:12;;;;;;;0.30;0.30;;;;;;;;;;6147638;23;20016;-55
2022/05/25 15:22:43;;;;;;;0.00;0.00;;;;;;;;;;6144475;23;20069;-57
2022/05/25 15:25:11;;;;;;;0.35;0.35;;;;;;;;;;6148209;23;20032;-58
2022/05/25 15:27:42;;;;;;;0.00;0.00;;;;;;;;;;6145311;23;20808;-57
2022/05/25 15:30:27;;;;;;;0.17;0.17;;;;;;;;;;6147309;23;20069;-57
2022/05/25 15:32:52;;;;;;;0.10;0.10;;;;;;;;;;6147438;23;20020;-55
2022/05/25 15:35:17;;;;;;;0.00;0.00;;;;;;;;;;6145912;23;20025;-57
2022/05/25 15:37:56;;;;;;;0.00;0.00;;;;;;;;;;6145637;23;20041;-55
2022/05/25 15:40:22;;;;;;;0.00;0.00;;;;;;;;;;6144326;23;20022;-58
2022/05/25 15:42:47;;;;;;;0.10;0.10;;;;;;;;;;6147741;23;20015;-56
2022/05/25 15:45:13;;;;;;;0.00;0.00;;;;;;;;;;6145925;23;20009;-57
2022/05/25 15:47:38;;;;;;;0.00;0.00;;;;;;;;;;6147523;23;20061;-57
2022/05/25 15:50:03;;;;;;;5.57;2.30;;;;;;;;;;6146703;23;20149;-55
2022/05/25 15:52:29;;;;;;;0.00;0.00;;;;;;;;;;6146909;23;20009;-58
2022/05/25 15:54:54;;;;;;;0.00;0.00;;;;;;;;;;6145965;23;20064;-56
2022/05/25 15:57:19;;;;;;;0.00;0.00;;;;;;;;;;6147356;23;20025;-57